Time;durP1;ratioP1;P1;durP2;ratioP2;P2;SDS_P1;SDS_P2;PMS_P1;PMS_P2;Temp;Humidity;BMP_temperature;BMP_pressure;BME280_temperature;BME280_humidity;BME280_pressure;Samples;Min_cycle;Max_cycle;Signal;HPM_P1;HPM_P2
2023/06/04 00:00:43;;;;;;;1.77;0.90;;;13.50;57.30;;;;;;5020774;27;86108;-74
2023/06/04 00:03:09;;;;;;;3.42;1.30;;;13.50;57.20;;;;;;5020281;28;86692;-76
2023/06/04 00:05:35;;;;;;;2.75;1.17;;;13.40;57.20;;;;;;5020541;27;86518;-75
2023/06/04 00:08:00;;;;;;;3.55;1.00;;;13.40;57.10;;;;;;5023441;28;86504;-75
2023/06/04 00:10:26;;;;;;;6.15;1.00;;;13.40;58.10;;;;;;5019983;27;88187;-75
2023/06/04 00:12:51;;;;;;;1.30;0.80;;;13.40;57.30;;;;;;5023297;28;86902;-75
2023/06/04 00:15:17;;;;;;;4.13;1.00;;;13.30;57.20;;;;;;5021494;28;86206;-75
2023/06/04 00:17:43;;;;;;;2.20;0.95;;;13.30;58.30;;;;;;5019515;27;86582;-75
2023/06/04 00:20:10;;;;;;;1.70;0.90;;;13.40;57.40;;;;;;5023402;27;87669;-75
2023/06/04 00:22:35;;;;;;;1.35;0.93;;;13.30;57.50;;;;;;5021973;28;87038;-75
2023/06/04 00:25:01;;;;;;;7.50;1.25;;;13.30;57.30;;;;;;5022551;28;86975;-75
2023/06/04 00:27:27;;;;;;;2.72;0.85;;;13.30;58.00;;;;;;5018571;28;86664;-76
2023/06/04 00:29:52;;;;;;;1.60;1.15;;;13.20;58.20;;;;;;5021189;27;87423;-75
2023/06/04 00:32:18;;;;;;;3.33;0.90;;;13.20;59.70;;;;;;5021545;27;86860;-75
2023/06/04 00:34:49;;;;;;;3.42;0.80;;;13.10;58.90;;;;;;5022971;27;86096;-74
2023/06/04 00:37:15;;;;;;;2.05;1.15;;;13.10;58.70;;;;;;5021256;27;86570;-75
2023/06/04 00:39:40;;;;;;;2.67;1.02;;;13.10;59.10;;;;;;5020471;27;87091;-75
2023/06/04 00:42:06;;;;;;;4.03;1.10;;;13.00;58.80;;;;;;5023147;27;86864;-75
2023/06/04 00:44:33;;;;;;;3.22;1.10;;;13.00;59.40;;;;;;5024408;27;86192;-75
2023/06/04 00:46:59;;;;;;;2.40;0.90;;;13.00;59.40;;;;;;5022039;27;86697;-75
2023/06/04 00:49:25;;;;;;;3.15;1.20;;;13.00;58.90;;;;;;5021443;27;87465;-76
2023/06/04 00:51:50;;;;;;;1.73;1.23;;;12.90;58.90;;;;;;5022399;27;89662;-75
2023/06/04 00:54:17;;;;;;;4.55;1.27;;;12.90;59.10;;;;;;5020991;27;86370;-75
2023/06/04 00:56:44;;;;;;;6.00;1.00;;;12.90;58.90;;;;;;5021614;27;86747;-75
2023/06/04 00:59:10;;;;;;;1.73;1.00;;;12.90;58.30;;;;;;5020722;27;87498;-75
2023/06/04 01:01:58;;;;;;;4.88;1.17;;;12.90;58.50;;;;;;5020675;28;87148;-75
2023/06/04 01:04:36;;;;;;;1.98;1.02;;;12.90;59.10;;;;;;5019628;28;86397;-75
2023/06/04 01:07:12;;;;;;;2.40;1.00;;;12.80;59.00;;;;;;5019067;28;87053;-75
2023/06/04 01:09:38;;;;;;;5.35;1.85;;;12.80;58.90;;;;;;5021819;27;87297;-75
2023/06/04 01:12:05;;;;;;;3.20;1.23;;;12.80;59.20;;;;;;5021234;28;86269;-75
2023/06/04 01:14:33;;;;;;;2.55;1.02;;;12.80;59.40;;;;;;5021640;27;86538;-75
2023/06/04 01:17:03;;;;;;;3.08;1.20;;;12.70;58.90;;;;;;5017158;28;86317;-76
2023/06/04 01:19:51;;;;;;;2.30;0.95;;;12.70;58.60;;;;;;5021477;27;86896;-75
2023/06/04 01:22:35;;;;;;;1.58;0.90;;;12.70;59.90;;;;;;5022027;28;87369;-75
2023/06/04 01:25:09;;;;;;;2.63;0.90;;;12.70;59.20;;;;;;5020252;27;88530;-75
2023/06/04 01:27:36;;;;;;;2.97;1.17;;;12.70;58.90;;;;;;5019299;27;86234;-75
2023/06/04 01:30:03;;;;;;;1.65;0.93;;;12.60;59.30;;;;;;5019729;27;87437;-75
2023/06/04 01:32:30;;;;;;;1.48;0.90;;;12.60;59.90;;;;;;5019105;28;87452;-74
2023/06/04 01:34:55;;;;;;;3.42;1.02;;;12.60;59.80;;;;;;5021990;27;86418;-75
2023/06/04 01:37:21;;;;;;;3.97;1.20;;;12.60;59.10;;;;;;5020991;28;86336;-74
2023/06/04 01:39:47;;;;;;;3.22;0.93;;;12.50;59.30;;;;;;5018928;27;87144;-75
2023/06/04 01:42:12;;;;;;;3.17;1.20;;;12.60;59.10;;;;;;5018346;28;86528;-75
2023/06/04 01:44:38;;;;;;;1.90;1.00;;;12.50;59.20;;;;;;5021986;27;86295;-76
2023/06/04 01:47:04;;;;;;;2.95;1.00;;;12.50;59.80;;;;;;5022549;27;86349;-75
2023/06/04 01:49:29;;;;;;;4.97;1.20;;;12.50;60.20;;;;;;5021378;27;86181;-75
2023/06/04 01:51:56;;;;;;;3.50;1.25;;;12.40;60.20;;;;;;5026081;28;87214;-75
2023/06/04 01:54:22;;;;;;;2.13;1.05;;;12.40;60.50;;;;;;5023582;27;86254;-75
2023/06/04 01:56:48;;;;;;;1.92;1.10;;;12.30;61.40;;;;;;5024553;27;86802;-75
2023/06/04 01:59:16;;;;;;;2.03;0.88;;;12.30;62.20;;;;;;5022505;28;90861;-75
2023/06/04 02:01:42;;;;;;;2.97;1.20;;;12.20;61.70;;;;;;5023466;27;86544;-75
2023/06/04 02:04:07;;;;;;;4.40;1.33;;;12.20;61.70;;;;;;5025945;27;86422;-75
2023/06/04 02:06:33;;;;;;;1.95;1.15;;;12.10;62.00;;;;;;5022758;27;86588;-75
2023/06/04 02:09:00;;;;;;;2.83;1.17;;;12.10;62.60;;;;;;5023766;28;88225;-74
2023/06/04 02:11:26;;;;;;;2.92;1.10;;;12.00;63.70;;;;;;5023140;27;87458;-75
2023/06/04 02:13:51;;;;;;;7.65;1.40;;;12.00;62.40;;;;;;5025076;28;86390;-75
2023/06/04 02:16:17;;;;;;;3.25;1.30;;;11.90;62.50;;;;;;5026145;27;86137;-75
2023/06/04 02:18:42;;;;;;;4.80;1.13;;;11.90;62.60;;;;;;5024865;27;87336;-75
2023/06/04 02:21:08;;;;;;;3.58;1.20;;;11.80;63.30;;;;;;5025712;27;86937;-75
2023/06/04 02:23:34;;;;;;;1.98;1.10;;;11.80;63.90;;;;;;5023954;28;86412;-75
2023/06/04 02:25:59;;;;;;;4.85;1.10;;;11.70;63.60;;;;;;5025153;27;86219;-75
2023/06/04 02:28:25;;;;;;;3.65;1.35;;;11.70;63.10;;;;;;5024952;27;87593;-74
2023/06/04 02:30:51;;;;;;;6.32;1.35;;;11.70;64.00;;;;;;5025593;27;86579;-75
2023/06/04 02:33:16;;;;;;;2.60;1.20;;;11.60;63.30;;;;;;5023325;27;86481;-75
2023/06/04 02:35:42;;;;;;;1.45;1.10;;;11.60;64.70;;;;;;5023461;27;86387;-74
2023/06/04 02:38:08;;;;;;;5.38;1.33;;;11.50;64.90;;;;;;5023656;27;88242;-75
2023/06/04 02:40:33;;;;;;;4.40;1.70;;;11.50;64.00;;;;;;5024653;28;87089;-76
2023/06/04 02:42:59;;;;;;;4.65;1.45;;;11.50;64.70;;;;;;5022087;28;86741;-75
2023/06/04 02:45:25;;;;;;;5.20;1.40;;;11.50;65.00;;;;;;5024734;27;86571;-75
2023/06/04 02:47:51;;;;;;;2.60;1.17;;;11.40;64.70;;;;;;5022506;28;87109;-75
2023/06/04 02:50:16;;;;;;;5.82;1.85;;;11.40;65.20;;;;;;5021734;28;87013;-75
2023/06/04 02:52:42;;;;;;;3.38;1.30;;;11.40;65.10;;;;;;5023639;27;86522;-75
2023/06/04 02:55:08;;;;;;;3.55;1.50;;;11.40;65.30;;;;;;5026073;27;86031;-75
2023/06/04 02:57:35;;;;;;;2.97;1.40;;;11.30;65.10;;;;;;5023269;27;86366;-75
2023/06/04 03:00:02;;;;;;;2.22;1.60;;;11.30;65.10;;;;;;5021714;27;87166;-75
2023/06/04 03:02:28;;;;;;;8.10;1.48;;;11.20;65.60;;;;;;5021260;27;86389;-75
2023/06/04 03:04:54;;;;;;;8.73;1.70;;;11.20;65.00;;;;;;5023113;27;86283;-75
2023/06/04 03:07:22;;;;;;;9.63;1.75;;;11.20;65.20;;;;;;5024913;28;86901;-75
2023/06/04 03:09:51;;;;;;;2.55;1.42;;;11.10;65.20;;;;;;5021410;28;86990;-76
2023/06/04 03:12:16;;;;;;;3.88;1.52;;;11.10;66.10;;;;;;5022337;28;85901;-75
2023/06/04 03:14:42;;;;;;;2.58;1.40;;;11.10;66.20;;;;;;5022793;27;86313;-75
2023/06/04 03:17:10;;;;;;;4.03;1.67;;;11.10;66.70;;;;;;5021594;27;86718;-75
2023/06/04 03:19:41;;;;;;;3.42;1.70;;;11.00;66.70;;;;;;5021686;27;86921;-75
2023/06/04 03:22:08;;;;;;;3.60;1.77;;;11.00;67.50;;;;;;5031061;28;86698;-75
2023/06/04 03:24:36;;;;;;;3.45;1.90;;;11.00;68.10;;;;;;5024198;27;86244;-76
2023/06/04 03:27:03;;;;;;;3.50;1.60;;;11.00;68.10;;;;;;5023975;27;86310;-75
2023/06/04 03:29:30;;;;;;;4.45;1.70;;;11.00;67.80;;;;;;5023522;27;87800;-75
2023/06/04 03:31:56;;;;;;;4.50;1.70;;;10.90;69.20;;;;;;5021675;27;86432;-76
2023/06/04 03:34:24;;;;;;;4.60;1.98;;;10.90;68.80;;;;;;5025203;28;86262;-74
2023/06/04 03:36:54;;;;;;;4.32;1.50;;;10.80;69.00;;;;;;4993602;28;94095;-75
2023/06/04 03:39:19;;;;;;;3.13;1.83;;;10.90;69.30;;;;;;4992364;28;87370;-75
2023/06/04 03:41:45;;;;;;;4.50;2.20;;;10.80;69.30;;;;;;4993586;28;86266;-75
2023/06/04 03:44:16;;;;;;;6.15;2.42;;;10.80;69.60;;;;;;5007467;28;86401;-75
2023/06/04 03:46:42;;;;;;;3.50;1.60;;;10.80;69.90;;;;;;4992743;28;87981;-75
2023/06/04 03:49:10;;;;;;;4.80;1.40;;;10.80;71.00;;;;;;4994728;28;86530;-74
2023/06/04 03:51:37;;;;;;;4.88;2.25;;;10.70;71.20;;;;;;4993489;28;86177;-75
2023/06/04 03:54:03;;;;;;;4.40;1.92;;;10.70;71.50;;;;;;4993295;28;86265;-75
2023/06/04 03:56:28;;;;;;;3.88;1.40;;;10.70;72.10;;;;;;4992963;28;86299;-75
2023/06/04 03:58:54;;;;;;;5.20;1.95;;;10.80;72.70;;;;;;4991931;28;87363;-75
2023/06/04 04:01:20;;;;;;;3.85;1.92;;;10.70;73.10;;;;;;4993109;28;86293;-75
2023/06/04 04:03:49;;;;;;;4.70;1.98;;;10.70;72.60;;;;;;4992946;28;86548;-75
2023/06/04 04:06:15;;;;;;;4.15;1.88;;;10.70;72.60;;;;;;4992374;28;86484;-75
2023/06/04 04:08:44;;;;;;;3.80;1.60;;;10.80;72.50;;;;;;4991950;28;87030;-74
2023/06/04 04:11:10;;;;;;;3.60;1.95;;;10.80;74.40;;;;;;4990517;28;86534;-75
2023/06/04 04:13:36;;;;;;;3.53;1.90;;;10.80;73.80;;;;;;4993099;28;86458;-76
2023/06/04 04:16:02;;;;;;;3.92;1.77;;;10.80;73.20;;;;;;4993708;28;86966;-74
2023/06/04 04:18:27;;;;;;;2.95;1.90;;;10.90;74.20;;;;;;4991085;28;89085;-75
2023/06/04 04:20:53;;;;;;;4.95;2.00;;;10.90;74.00;;;;;;4993487;28;86454;-75
2023/06/04 04:23:19;;;;;;;6.78;1.80;;;10.90;75.40;;;;;;4992053;28;87521;-75
2023/06/04 04:25:45;;;;;;;3.47;2.13;;;10.90;75.30;;;;;;4992326;28;86559;-75
2023/06/04 04:28:11;;;;;;;6.97;2.17;;;11.00;75.20;;;;;;4994069;28;87324;-75
2023/06/04 04:30:37;;;;;;;3.90;2.13;;;11.00;75.10;;;;;;5010937;28;86245;-75
2023/06/04 04:33:05;;;;;;;8.15;2.30;;;11.10;75.80;;;;;;5016313;28;85863;-76
2023/06/04 04:35:32;;;;;;;5.13;1.83;;;11.10;75.70;;;;;;5022599;27;87896;-75
2023/06/04 04:37:58;;;;;;;2.65;1.73;;;11.20;75.90;;;;;;5021274;28;86564;-75
2023/06/04 04:40:25;;;;;;;5.40;2.03;;;11.20;75.40;;;;;;5023626;28;86525;-75
2023/06/04 04:42:50;;;;;;;7.30;2.38;;;11.20;75.90;;;;;;5018447;28;87574;-75
2023/06/04 04:45:17;;;;;;;6.60;1.88;;;11.30;76.20;;;;;;5018271;28;90536;-75
2023/06/04 04:47:43;;;;;;;8.95;2.35;;;11.40;76.20;;;;;;5020685;27;88889;-75
2023/06/04 04:50:08;;;;;;;5.05;2.30;;;11.40;76.00;;;;;;5021681;27;86653;-75
2023/06/04 04:52:34;;;;;;;7.05;2.10;;;11.50;75.70;;;;;;5021268;27;86574;-75
2023/06/04 04:55:00;;;;;;;4.80;2.05;;;11.60;76.90;;;;;;5022354;28;86606;-76
2023/06/04 04:57:25;;;;;;;7.32;2.72;;;11.60;76.20;;;;;;5019979;28;86809;-75
2023/06/04 04:59:51;;;;;;;3.28;1.92;;;11.70;76.60;;;;;;5022796;27;86148;-74
2023/06/04 05:02:17;;;;;;;2.95;1.85;;;11.70;76.30;;;;;;5019379;28;86383;-75
2023/06/04 05:04:43;;;;;;;4.80;2.40;;;11.80;77.10;;;;;;5021356;28;86598;-76
2023/06/04 05:07:08;;;;;;;4.18;2.20;;;11.90;76.40;;;;;;5020623;28;89486;-75
2023/06/04 05:09:34;;;;;;;5.80;2.05;;;12.00;76.00;;;;;;5019995;28;86651;-75
2023/06/04 05:12:00;;;;;;;5.80;2.20;;;12.00;75.80;;;;;;5020988;28;86260;-75
2023/06/04 05:14:25;;;;;;;4.13;2.33;;;12.10;76.00;;;;;;5020811;28;87089;-75
2023/06/04 05:16:51;;;;;;;5.05;2.40;;;12.20;75.90;;;;;;5022012;27;87466;-75
2023/06/04 05:19:17;;;;;;;5.07;2.10;;;12.30;76.40;;;;;;5021993;28;86246;-75
2023/06/04 05:21:44;;;;;;;4.78;2.22;;;12.30;75.60;;;;;;5023446;27;86589;-75
2023/06/04 05:24:10;;;;;;;4.88;2.17;;;12.40;75.10;;;;;;5026547;27;86913;-78
2023/06/04 05:26:37;;;;;;;5.00;2.05;;;12.50;74.70;;;;;;5028490;27;88867;-78
2023/06/04 05:29:04;;;;;;;4.85;2.17;;;12.60;75.70;;;;;;5028433;28;86217;-78
2023/06/04 05:31:33;;;;;;;9.80;2.58;;;12.70;74.90;;;;;;5030181;27;86231;-78
2023/06/04 05:34:01;;;;;;;7.85;2.50;;;12.80;74.80;;;;;;5030472;28;87387;-78
2023/06/04 05:36:27;;;;;;;4.50;2.30;;;12.90;73.70;;;;;;5029773;27;86837;-78
2023/06/04 05:38:56;;;;;;;6.22;2.50;;;12.90;73.60;;;;;;5029983;28;85712;-78
2023/06/04 05:41:23;;;;;;;5.93;2.35;;;13.00;74.50;;;;;;5029608;27;86384;-78
2023/06/04 05:43:49;;;;;;;4.05;2.40;;;13.10;73.90;;;;;;5029432;28;86494;-78
2023/06/04 05:46:15;;;;;;;3.53;2.10;;;13.30;73.70;;;;;;5029628;28;87657;-78
2023/06/04 05:48:41;;;;;;;3.20;2.50;;;13.30;73.20;;;;;;5030344;27;86300;-78
2023/06/04 05:51:06;;;;;;;5.45;2.50;;;13.50;72.80;;;;;;5029662;27;86232;-78
2023/06/04 05:53:33;;;;;;;9.15;2.80;;;13.50;72.20;;;;;;5028917;28;90529;-78
2023/06/04 05:55:58;;;;;;;8.00;2.80;;;13.60;71.30;;;;;;5030582;27;86615;-78
2023/06/04 05:58:24;;;;;;;7.50;3.05;;;13.70;71.30;;;;;;5036921;28;86005;-81
2023/06/04 06:00:51;;;;;;;5.22;2.90;;;13.80;70.90;;;;;;5190155;22;85960;-80
2023/06/04 06:03:19;;;;;;;7.20;3.08;;;13.90;71.60;;;;;;5005592;27;90204;-81
2023/06/04 06:05:44;;;;;;;6.63;3.50;;;14.00;70.50;;;;;;5073379;22;88627;-80
2023/06/04 06:08:10;;;;;;;6.25;3.53;;;14.20;71.40;;;;;;4968029;28;86394;-79
2023/06/04 06:10:36;;;;;;;8.85;3.42;;;14.20;69.60;;;;;;4967592;28;86821;-80
2023/06/04 06:13:02;;;;;;;3.80;3.22;;;14.40;69.60;;;;;;4970097;28;89288;-80
2023/06/04 06:15:28;;;;;;;5.78;3.20;;;14.50;70.70;;;;;;4970776;28;87166;-80
2023/06/04 06:17:54;;;;;;;5.72;3.33;;;14.60;68.10;;;;;;4968764;28;86439;-80
2023/06/04 06:20:21;;;;;;;7.32;3.63;;;14.70;68.30;;;;;;4971768;28;85902;-80
2023/06/04 06:22:47;;;;;;;6.30;3.20;;;14.80;67.80;;;;;;4971959;28;87536;-80
2023/06/04 06:25:15;;;;;;;5.65;2.88;;;14.90;67.40;;;;;;4974458;28;87372;-80
2023/06/04 06:27:41;;;;;;;5.18;3.10;;;15.10;67.00;;;;;;4974510;28;86577;-80
2023/06/04 06:30:08;;;;;;;7.20;2.95;;;15.20;67.10;;;;;;4971424;28;86486;-80
2023/06/04 06:32:34;;;;;;;6.88;3.35;;;15.30;67.20;;;;;;4970450;28;90594;-80
2023/06/04 06:35:01;;;;;;;6.13;2.33;;;15.50;66.60;;;;;;4966620;28;88694;-81
2023/06/04 06:37:26;;;;;;;6.07;2.47;;;15.60;66.00;;;;;;4970495;28;86542;-80
2023/06/04 06:39:52;;;;;;;5.53;2.38;;;15.70;65.10;;;;;;4969980;28;85826;-80
2023/06/04 06:42:19;;;;;;;7.20;2.63;;;15.80;66.40;;;;;;4966750;28;88286;-80
2023/06/04 06:44:44;;;;;;;8.80;2.40;;;16.00;65.90;;;;;;4972367;28;86513;-80
2023/06/04 06:47:13;;;;;;;9.27;2.97;;;16.10;65.50;;;;;;4969316;28;86478;-79
2023/06/04 06:49:39;;;;;;;3.70;2.45;;;16.30;64.50;;;;;;4984440;28;86236;-81
2023/06/04 06:52:05;;;;;;;5.07;2.70;;;16.40;65.10;;;;;;4968353;28;87010;-82
2023/06/04 06:54:31;;;;;;;6.60;2.30;;;16.50;62.30;;;;;;4973503;28;87113;-89
2023/06/04 06:56:57;;;;;;;4.60;2.58;;;16.60;62.20;;;;;;4969835;28;86325;-89
2023/06/04 06:59:23;;;;;;;4.53;2.70;;;16.80;63.00;;;;;;4971935;28;85833;-91
2023/06/04 07:01:49;;;;;;;6.45;2.88;;;16.90;63.40;;;;;;4972448;28;89924;-83
2023/06/04 07:04:15;;;;;;;4.22;2.40;;;17.10;63.30;;;;;;4989279;28;87036;-84
2023/06/04 07:06:41;;;;;;;6.68;2.72;;;17.30;62.10;;;;;;4987254;28;86771;-85
2023/06/04 07:09:08;;;;;;;4.47;2.40;;;17.40;60.60;;;;;;4986657;28;86610;-82
2023/06/04 07:11:33;;;;;;;3.38;2.15;;;17.60;63.00;;;;;;4986613;28;87282;-86
2023/06/04 07:14:01;;;;;;;8.23;2.95;;;17.70;60.10;;;;;;5005023;28;89135;-81
2023/06/04 07:16:27;;;;;;;6.53;2.78;;;17.90;60.10;;;;;;4988732;28;86397;-89
2023/06/04 07:18:52;;;;;;;4.28;2.30;;;18.10;60.60;;;;;;4989393;28;86565;-91
2023/06/04 07:21:20;;;;;;;3.45;2.40;;;18.20;60.80;;;;;;4984977;28;90459;-89
2023/06/04 07:23:49;;;;;;;2.63;1.95;;;18.40;60.50;;;;;;4967360;28;89237;-87
2023/06/04 07:26:15;;;;;;;5.97;2.85;;;18.60;58.70;;;;;;4975318;28;86945;-89
2023/06/04 07:28:41;;;;;;;2.78;2.00;;;18.80;58.90;;;;;;4986594;28;86442;-86
2023/06/04 07:31:07;;;;;;;5.47;2.40;;;18.90;59.00;;;;;;4989413;28;89316;-86
2023/06/04 07:33:33;;;;;;;10.93;2.55;;;19.10;57.90;;;;;;4983423;28;88938;-86
2023/06/04 07:35:58;;;;;;;4.45;1.60;;;19.20;55.60;;;;;;4988777;28;86139;-86
2023/06/04 07:38:24;;;;;;;2.60;1.35;;;19.30;56.80;;;;;;4987461;28;86412;-88
2023/06/04 07:40:50;;;;;;;5.30;2.10;;;19.50;56.40;;;;;;4985575;28;90956;-86
2023/06/04 07:43:16;;;;;;;4.95;1.88;;;19.70;55.80;;;;;;4969809;28;89617;-87
2023/06/04 07:45:41;;;;;;;6.68;2.10;;;19.80;57.40;;;;;;4965369;28;86469;-87
2023/06/04 07:48:10;;;;;;;3.95;2.10;;;20.00;55.80;;;;;;4982713;28;86212;-79
2023/06/04 07:50:36;;;;;;;3.95;1.60;;;20.20;56.20;;;;;;4978293;28;86817;-77
2023/06/04 07:53:02;;;;;;;4.30;1.70;;;20.40;53.80;;;;;;4987997;28;86807;-79
2023/06/04 07:55:31;;;;;;;2.95;1.73;;;20.60;56.00;;;;;;5001373;28;87085;-87
2023/06/04 07:57:57;;;;;;;3.72;1.17;;;20.70;54.10;;;;;;4994635;28;86521;-87
2023/06/04 08:00:22;;;;;;;6.03;1.95;;;21.00;53.70;;;;;;4932948;28;89212;-88
2023/06/04 08:02:50;;;;;;;2.17;1.52;;;21.20;53.30;;;;;;4977997;28;89813;-88
2023/06/04 08:05:16;;;;;;;4.35;1.52;;;21.30;51.90;;;;;;4989802;28;86738;-80
2023/06/04 08:07:41;;;;;;;2.10;1.45;;;21.40;52.40;;;;;;4985115;28;86686;-80
2023/06/04 08:10:07;;;;;;;4.63;1.15;;;21.60;52.10;;;;;;4984807;28;90351;-81
2023/06/04 08:12:33;;;;;;;3.17;1.25;;;21.80;49.60;;;;;;4984940;28;90961;-82
2023/06/04 08:14:58;;;;;;;4.47;1.45;;;21.90;51.50;;;;;;4994810;28;87600;-84
2023/06/04 08:17:24;;;;;;;1.92;1.10;;;22.10;51.10;;;;;;4982795;28;86402;-83
2023/06/04 08:19:50;;;;;;;3.92;1.60;;;22.20;50.40;;;;;;4971498;28;86412;-83
2023/06/04 08:22:15;;;;;;;2.30;1.20;;;22.30;47.80;;;;;;4987904;28;90432;-83
2023/06/04 08:24:41;;;;;;;3.03;1.20;;;22.50;49.50;;;;;;4982343;28;86213;-82
2023/06/04 08:27:08;;;;;;;4.32;1.33;;;22.60;48.40;;;;;;4982988;28;85966;-82
2023/06/04 08:29:38;;;;;;;5.07;1.33;;;22.80;48.70;;;;;;4983201;28;88969;-82
2023/06/04 08:32:04;;;;;;;3.03;1.45;;;23.10;47.90;;;;;;4972503;28;89635;-82
2023/06/04 08:34:30;;;;;;;3.58;1.20;;;23.20;49.40;;;;;;4986600;28;86437;-82
2023/06/04 08:36:56;;;;;;;1.52;0.90;;;23.30;48.10;;;;;;5003366;28;86282;-83
2023/06/04 08:39:23;;;;;;;2.33;1.20;;;23.60;47.90;;;;;;4987137;28;90111;-84
2023/06/04 08:41:54;;;;;;;6.53;1.42;;;23.70;45.40;;;;;;5003060;28;88412;-82
2023/06/04 08:44:20;;;;;;;2.92;1.48;;;23.80;45.80;;;;;;4983181;28;86451;-82
2023/06/04 08:46:49;;;;;;;2.65;1.15;;;24.00;44.40;;;;;;4970574;28;86739;-83
2023/06/04 08:49:16;;;;;;;2.58;1.13;;;24.00;45.30;;;;;;4995568;28;89987;-83
2023/06/04 08:51:42;;;;;;;4.35;1.02;;;24.20;45.90;;;;;;5001105;28;88730;-82
2023/06/04 08:54:09;;;;;;;4.97;1.60;;;24.40;45.60;;;;;;5001595;28;86639;-81
2023/06/04 08:56:35;;;;;;;6.68;1.15;;;24.60;44.30;;;;;;5002257;28;86183;-82
2023/06/04 08:59:03;;;;;;;4.88;1.20;;;24.80;44.80;;;;;;4987345;28;87141;-82
2023/06/04 09:01:34;;;;;;;5.47;1.50;;;25.10;43.00;;;;;;4984497;28;86959;-83
2023/06/04 09:04:03;;;;;;;2.13;1.30;;;25.30;42.20;;;;;;5002865;28;87145;-83
2023/06/04 09:06:30;;;;;;;4.28;1.60;;;25.50;43.20;;;;;;4984614;28;86045;-84
2023/06/04 09:09:00;;;;;;;4.00;1.33;;;25.60;43.40;;;;;;4982765;28;86307;-84
2023/06/04 09:11:30;;;;;;;2.80;1.40;;;25.70;41.30;;;;;;4975275;28;88161;-85
2023/06/04 09:14:01;;;;;;;3.40;1.67;;;25.70;41.10;;;;;;5003156;28;86614;-83
2023/06/04 09:16:26;;;;;;;4.65;1.38;;;25.80;41.90;;;;;;4989175;28;86507;-83
2023/06/04 09:18:54;;;;;;;2.90;1.25;;;26.00;41.20;;;;;;4987262;28;89562;-80
2023/06/04 09:21:19;;;;;;;2.40;1.20;;;26.30;41.20;;;;;;4983934;28;88364;-80
2023/06/04 09:23:46;;;;;;;5.28;1.50;;;26.50;40.00;;;;;;4983763;28;87905;-79
2023/06/04 09:26:12;;;;;;;2.58;1.30;;;26.50;39.00;;;;;;4985244;28;86602;-79
2023/06/04 09:28:45;;;;;;;3.80;1.20;;;26.50;40.10;;;;;;4985678;28;90463;-78
2023/06/04 09:31:17;;;;;;;2.03;1.30;;;26.50;38.10;;;;;;5002382;28;88678;-77
2023/06/04 09:33:44;;;;;;;5.00;1.20;;;26.50;40.40;;;;;;4993140;28;86500;-77
2023/06/04 09:36:10;;;;;;;3.45;1.45;;;26.50;39.30;;;;;;4987369;28;86430;-77
2023/06/04 09:38:36;;;;;;;2.50;1.35;;;26.60;41.10;;;;;;4986042;28;87158;-78
2023/06/04 09:41:05;;;;;;;3.08;1.33;;;26.90;39.80;;;;;;5000197;28;89952;-78
2023/06/04 09:43:32;;;;;;;3.42;1.42;;;27.00;37.90;;;;;;4986268;28;86427;-78
2023/06/04 09:46:09;;;;;;;2.97;1.42;;;27.00;38.70;;;;;;5003135;28;86188;-78
2023/06/04 09:48:35;;;;;;;4.03;1.30;;;27.00;38.50;;;;;;4984150;28;90670;-78
2023/06/04 09:51:08;;;;;;;5.70;1.35;;;27.10;39.30;;;;;;4980436;28;88556;-78
2023/06/04 09:53:34;;;;;;;3.50;1.20;;;27.40;37.80;;;;;;4975289;28;85895;-77
2023/06/04 09:56:01;;;;;;;3.42;1.23;;;27.60;38.80;;;;;;4985781;28;86120;-77
2023/06/04 09:58:28;;;;;;;4.93;1.27;;;27.70;37.40;;;;;;4986286;28;86880;-77
2023/06/04 10:00:55;;;;;;;5.22;1.25;;;27.70;37.60;;;;;;4982490;28;90003;-77
2023/06/04 10:03:25;;;;;;;2.70;1.10;;;27.90;37.90;;;;;;4986107;28;86652;-78
2023/06/04 10:05:53;;;;;;;7.22;1.40;;;28.10;38.20;;;;;;5000996;28;86460;-78
2023/06/04 10:08:25;;;;;;;2.65;1.17;;;28.20;36.40;;;;;;5001250;28;89383;-80
2023/06/04 10:10:54;;;;;;;2.15;1.00;;;28.00;36.40;;;;;;4983578;28;90431;-78
2023/06/04 10:13:22;;;;;;;4.57;0.90;;;28.10;37.30;;;;;;4968741;28;86627;-79
2023/06/04 10:15:49;;;;;;;9.00;1.55;;;28.30;37.60;;;;;;4988039;28;86380;-77
2023/06/04 10:18:16;;;;;;;2.60;1.17;;;28.50;36.90;;;;;;4989826;28;86568;-76
2023/06/04 10:20:42;;;;;;;1.65;1.02;;;28.50;35.80;;;;;;4986875;28;89860;-77
2023/06/04 10:23:08;;;;;;;5.32;1.30;;;28.50;35.80;;;;;;4988318;28;86054;-77
2023/06/04 10:25:37;;;;;;;4.47;0.95;;;28.60;36.20;;;;;;4989489;28;86491;-78
2023/06/04 10:28:03;;;;;;;3.30;1.05;;;28.90;37.00;;;;;;4988598;28;90651;-79
2023/06/04 10:30:30;;;;;;;3.88;1.20;;;29.00;35.10;;;;;;4989860;28;87255;-78
2023/06/04 10:32:57;;;;;;;2.60;0.98;;;28.90;36.40;;;;;;4989736;28;86841;-78
2023/06/04 10:35:36;;;;;;;3.20;1.08;;;28.90;36.00;;;;;;4988926;28;86832;-78
2023/06/04 10:38:16;;;;;;;4.63;1.17;;;29.30;37.10;;;;;;4986277;28;91123;-78
2023/06/04 10:40:43;;;;;;;7.78;1.30;;;29.50;34.40;;;;;;4988153;28;87021;-78
2023/06/04 10:43:11;;;;;;;3.83;0.88;;;29.40;35.10;;;;;;4990423;28;86507;-77
2023/06/04 10:45:37;;;;;;;3.03;1.05;;;29.70;35.60;;;;;;4988142;28;86749;-76
2023/06/04 10:48:04;;;;;;;3.65;1.10;;;29.90;36.30;;;;;;4989043;28;87393;-78
2023/06/04 10:50:31;;;;;;;2.40;1.10;;;30.00;35.50;;;;;;4988605;28;87184;-79
2023/06/04 10:52:58;;;;;;;2.97;1.17;;;30.00;36.20;;;;;;5002987;28;86471;-78
2023/06/04 10:55:24;;;;;;;3.15;1.23;;;30.00;34.70;;;;;;4987131;28;86296;-77
2023/06/04 10:58:00;;;;;;;4.15;1.20;;;30.10;35.10;;;;;;4987987;28;89973;-78
2023/06/04 11:00:43;;;;;;;4.55;1.45;;;29.80;34.50;;;;;;5005611;28;89616;-78
2023/06/04 11:03:12;;;;;;;2.90;1.23;;;29.50;34.70;;;;;;4987315;28;86098;-78
2023/06/04 11:05:45;;;;;;;5.40;1.40;;;29.60;36.00;;;;;;4985129;28;86018;-77
2023/06/04 11:08:13;;;;;;;3.53;1.30;;;29.70;35.50;;;;;;4988521;28;90376;-78
2023/06/04 11:10:42;;;;;;;4.47;1.17;;;29.80;34.90;;;;;;4986522;28;90144;-79
2023/06/04 11:13:08;;;;;;;7.43;1.13;;;29.90;35.80;;;;;;4988950;28;87148;-78
2023/06/04 11:15:44;;;;;;;10.57;1.98;;;30.20;36.10;;;;;;4987802;28;85936;-77
2023/06/04 11:18:18;;;;;;;4.47;1.27;;;30.50;35.80;;;;;;4988468;28;87922;-78
2023/06/04 11:20:48;;;;;;;4.50;2.03;;;30.70;34.80;;;;;;4986767;28;87629;-77
2023/06/04 11:23:14;;;;;;;4.53;1.00;;;30.90;34.50;;;;;;4987117;28;86426;-76
2023/06/04 11:25:42;;;;;;;3.65;1.30;;;31.10;34.80;;;;;;4988346;28;86359;-76
2023/06/04 11:28:13;;;;;;;2.80;1.05;;;31.30;34.20;;;;;;4988494;28;87322;-77
2023/06/04 11:30:39;;;;;;;5.10;1.10;;;31.40;35.80;;;;;;4987915;28;87899;-76
2023/06/04 11:33:05;;;;;;;2.85;1.40;;;31.50;33.90;;;;;;4987031;28;87025;-76
2023/06/04 11:35:40;;;;;;;5.13;1.40;;;31.60;33.80;;;;;;4990459;28;87640;-76
2023/06/04 11:38:05;;;;;;;2.03;1.25;;;31.40;34.40;;;;;;5002734;28;90756;-78
2023/06/04 11:40:31;;;;;;;4.63;1.25;;;31.60;34.40;;;;;;4985490;28;89955;-78
2023/06/04 11:42:57;;;;;;;2.70;1.17;;;31.90;33.40;;;;;;4988726;28;86540;-78
2023/06/04 11:45:25;;;;;;;4.30;0.93;;;31.90;34.10;;;;;;4985835;28;86364;-79
2023/06/04 11:47:55;;;;;;;6.55;1.17;;;32.00;33.60;;;;;;4981745;28;89496;-78
2023/06/04 11:50:28;;;;;;;4.97;1.10;;;32.20;33.40;;;;;;4972479;28;89652;-78
2023/06/04 11:52:53;;;;;;;2.47;0.95;;;32.60;33.40;;;;;;4982740;28;86637;-78
2023/06/04 11:55:23;;;;;;;2.78;0.90;;;32.80;33.10;;;;;;4967407;28;86682;-79
2023/06/04 11:57:50;;;;;;;2.83;1.20;;;32.90;32.80;;;;;;4985477;28;88719;-78
2023/06/04 12:00:17;;;;;;;3.05;0.98;;;33.30;31.80;;;;;;5001794;28;88425;-79
2023/06/04 12:02:52;;;;;;;1.92;1.20;;;33.40;31.80;;;;;;4987464;28;86397;-79
2023/06/04 12:05:22;;;;;;;5.65;1.30;;;33.60;32.70;;;;;;4986787;28;86238;-79
2023/06/04 12:07:50;;;;;;;2.83;0.85;;;33.20;30.20;;;;;;5001447;28;90278;-78
2023/06/04 12:10:17;;;;;;;4.32;1.30;;;33.20;32.00;;;;;;4985669;28;90143;-78
2023/06/04 12:12:43;;;;;;;5.22;1.30;;;33.40;31.00;;;;;;4985845;28;86594;-78
2023/06/04 12:15:12;;;;;;;3.25;0.90;;;33.40;32.30;;;;;;4985570;28;86675;-78
2023/06/04 12:17:52;;;;;;;2.45;0.98;;;33.50;31.10;;;;;;4985233;28;88075;-79
2023/06/04 12:20:19;;;;;;;4.15;1.25;;;33.30;30.50;;;;;;4985467;28;86920;-78
2023/06/04 12:22:46;;;;;;;1.42;0.80;;;33.30;30.30;;;;;;5001354;28;86568;-78
2023/06/04 12:25:23;;;;;;;8.05;1.50;;;33.40;31.80;;;;;;4992338;28;86191;-79
2023/06/04 12:27:48;;;;;;;17.55;1.90;;;33.40;29.90;;;;;;4987467;28;87933;-79
2023/06/04 12:30:15;;;;;;;5.43;1.20;;;33.40;31.00;;;;;;4985903;28;86227;-78
2023/06/04 12:32:42;;;;;;;3.10;1.25;;;33.30;31.10;;;;;;4986333;28;86527;-78
2023/06/04 12:35:08;;;;;;;3.72;1.40;;;33.20;31.10;;;;;;4980563;28;86055;-79
2023/06/04 12:37:33;;;;;;;2.70;1.10;;;33.20;29.20;;;;;;4967196;28;89436;-78
2023/06/04 12:39:59;;;;;;;5.60;1.00;;;32.90;30.80;;;;;;4984995;28;87423;-78
2023/06/04 12:42:27;;;;;;;4.97;1.13;;;33.20;30.20;;;;;;5000732;28;86665;-78
2023/06/04 12:44:53;;;;;;;2.35;1.17;;;33.50;31.40;;;;;;4985772;28;86826;-78